sensor_id;sensor_type;location;lat;lon;timestamp;P1;P2;P0
55857;PMS7003;41779;52.360;31.026;2023-12-04T00:02:02;9.8;6.4;5
55857;PMS7003;41779;52.360;31.026;2023-12-04T00:06:24;8.6;6;5.2
55857;PMS7003;41779;52.360;31.026;2023-12-04T00:11:38;7.4;5.2;4
55857;PMS7003;41779;52.360;31.026;2023-12-04T00:16:22;6.8;5;4
55857;PMS7003;41779;52.360;31.026;2023-12-04T00:21:22;6.4;4.4;3.4
55857;PMS7003;41779;52.360;31.026;2023-12-04T00:26:36;7;5;4.2
55857;PMS7003;41779;52.360;31.026;2023-12-04T00:31:50;10.4;7.2;5
55857;PMS7003;41779;52.360;31.026;2023-12-04T00:37:00;5.8;4.8;3.6
55857;PMS7003;41779;52.360;31.026;2023-12-04T00:41:22;8.8;6.3;4.8
55857;PMS7003;41779;52.360;31.026;2023-12-04T00:46:58;8;5.2;4.4
55857;PMS7003;41779;52.360;31.026;2023-12-04T00:51:28;6.6;4.6;3.8
55857;PMS7003;41779;52.360;31.026;2023-12-04T00:56:44;7.2;6;4.6
55857;PMS7003;41779;52.360;31.026;2023-12-04T01:01:40;9.6;5.8;4.4
55857;PMS7003;41779;52.360;31.026;2023-12-04T01:06:32;12.8;5.6;4.6
55857;PMS7003;41779;52.360;31.026;2023-12-04T01:12:02;6.8;5.6;5
55857;PMS7003;41779;52.360;31.026;2023-12-04T01:16:44;8.6;6;4.8
55857;PMS7003;41779;52.360;31.026;2023-12-04T01:22:02;10.2;6;4.8
55857;PMS7003;41779;52.360;31.026;2023-12-04T01:27:02;8.8;6.8;4.2
55857;PMS7003;41779;52.360;31.026;2023-12-04T01:31:26;7.8;6.4;4.8
55857;PMS7003;41779;52.360;31.026;2023-12-04T01:36:30;11.2;8.4;4.8
55857;PMS7003;41779;52.360;31.026;2023-12-04T01:42:04;10.3;7.5;5.3
55857;PMS7003;41779;52.360;31.026;2023-12-04T01:46:22;15.4;9.2;6
55857;PMS7003;41779;52.360;31.026;2023-12-04T01:51:30;15.8;9.6;7.2
55857;PMS7003;41779;52.360;31.026;2023-12-04T01:56:22;12;10.8;8.2
55857;PMS7003;41779;52.360;31.026;2023-12-04T02:01:22;10.8;8.8;6.6
55857;PMS7003;41779;52.360;31.026;2023-12-04T02:06:30;10.4;8.2;6.2
55857;PMS7003;41779;52.360;31.026;2023-12-04T02:11:54;11.4;7.4;5.8
55857;PMS7003;41779;52.360;31.026;2023-12-04T02:17:04;9.4;7.4;5.4
55857;PMS7003;41779;52.360;31.026;2023-12-04T02:21:39;13.2;9;6.2
55857;PMS7003;41779;52.360;31.026;2023-12-04T02:26:26;11.4;8;5.4
55857;PMS7003;41779;52.360;31.026;2023-12-04T02:31:24;9.8;6.8;5.4
55857;PMS7003;41779;52.360;31.026;2023-12-04T02:36:46;9;7;5.8
55857;PMS7003;41779;52.360;31.026;2023-12-04T02:41:26;11.3;7;4.8
55857;PMS7003;41779;52.360;31.026;2023-12-04T02:46:22;10.6;7.6;6
55857;PMS7003;41779;52.360;31.026;2023-12-04T02:51:42;12.4;7.2;4.6
55857;PMS7003;41779;52.360;31.026;2023-12-04T02:56:50;15.6;10;6.8
55857;PMS7003;41779;52.360;31.026;2023-12-04T03:02:00;10.8;7.2;5
55857;PMS7003;41779;52.360;31.026;2023-12-04T03:06:58;10.2;7.2;5.8
55857;PMS7003;41779;52.360;31.026;2023-12-04T03:11:22;10.4;8.2;6
55857;PMS7003;41779;52.360;31.026;2023-12-04T03:17:04;13.4;7.4;5.2
55857;PMS7003;41779;52.360;31.026;2023-12-04T03:21:32;12.2;8.6;6.6
55857;PMS7003;41779;52.360;31.026;2023-12-04T03:27:00;12;8.2;5.8
55857;PMS7003;41779;52.360;31.026;2023-12-04T03:31:22;10.4;7.6;6
55857;PMS7003;41779;52.360;31.026;2023-12-04T03:36:24;9.8;8;6.2
55857;PMS7003;41779;52.360;31.026;2023-12-04T03:41:30;11.8;8.4;6.4
55857;PMS7003;41779;52.360;31.026;2023-12-04T03:46:24;12;9;7
55857;PMS7003;41779;52.360;31.026;2023-12-04T03:51:22;14.6;9;7.4
55857;PMS7003;41779;52.360;31.026;2023-12-04T03:56:48;10.6;7;4.8
55857;PMS7003;41779;52.360;31.026;2023-12-04T04:01:52;12;8.8;6.2
55857;PMS7003;41779;52.360;31.026;2023-12-04T04:07:06;12.4;8.2;6.2
55857;PMS7003;41779;52.360;31.026;2023-12-04T04:12:04;9.4;6;5.4
55857;PMS7003;41779;52.360;31.026;2023-12-04T04:16:52;10;6.8;5.6
55857;PMS7003;41779;52.360;31.026;2023-12-04T04:22:04;14;9.8;7.6
55857;PMS7003;41779;52.360;31.026;2023-12-04T04:26:30;12.2;8.6;6
55857;PMS7003;41779;52.360;31.026;2023-12-04T04:31:44;16.6;9.2;6.6
55857;PMS7003;41779;52.360;31.026;2023-12-04T04:36:52;11;7;5.6
55857;PMS7003;41779;52.360;31.026;2023-12-04T04:42:02;12.6;8.4;5.6
55857;PMS7003;41779;52.360;31.026;2023-12-04T04:46:42;13.3;8.5;5.8
55857;PMS7003;41779;52.360;31.026;2023-12-04T04:51:28;13;9.2;6.6
55857;PMS7003;41779;52.360;31.026;2023-12-04T04:57:04;25.4;17;12.2
55857;PMS7003;41779;52.360;31.026;2023-12-04T05:01:42;25.8;20;15.2
55857;PMS7003;41779;52.360;31.026;2023-12-04T05:06:50;27.4;17.4;11.2
55857;PMS7003;41779;52.360;31.026;2023-12-04T05:11:22;21.4;14.2;9.2
55857;PMS7003;41779;52.360;31.026;2023-12-04T05:17:02;16.8;12.2;8.8
55857;PMS7003;41779;52.360;31.026;2023-12-04T05:21:28;18;10.6;7.6
55857;PMS7003;41779;52.360;31.026;2023-12-04T05:26:24;15.8;10.4;7.8
55857;PMS7003;41779;52.360;31.026;2023-12-04T05:31:22;11.4;9;6.8
55857;PMS7003;41779;52.360;31.026;2023-12-04T05:37:02;13.2;9.2;7.2
55857;PMS7003;41779;52.360;31.026;2023-12-04T05:41:34;13.2;8.2;5.8
55857;PMS7003;41779;52.360;31.026;2023-12-04T05:47:02;11.3;8.5;6
55857;PMS7003;41779;52.360;31.026;2023-12-04T05:52:02;15.2;10.2;7
55857;PMS7003;41779;52.360;31.026;2023-12-04T05:56:46;13.2;7.8;6.2
55857;PMS7003;41779;52.360;31.026;2023-12-04T06:02:04;13;11.2;8.8
55857;PMS7003;41779;52.360;31.026;2023-12-04T06:06:46;12.2;8.6;5.8
55857;PMS7003;41779;52.360;31.026;2023-12-04T06:11:32;14.2;10.2;7.2
55857;PMS7003;41779;52.360;31.026;2023-12-04T06:16:52;12.8;9.8;7.8
55857;PMS7003;41779;52.360;31.026;2023-12-04T06:22:04;13.2;10;6.8
55857;PMS7003;41779;52.360;31.026;2023-12-04T06:27:00;15;9.6;7.4
55857;PMS7003;41779;52.360;31.026;2023-12-04T06:31:40;13.6;8.4;6.4
55857;PMS7003;41779;52.360;31.026;2023-12-04T06:37:02;12.6;9;6.4
55857;PMS7003;41779;52.360;31.026;2023-12-04T06:41:26;14.4;8.8;6.4
55857;PMS7003;41779;52.360;31.026;2023-12-04T06:46:40;15.8;10.5;8
55857;PMS7003;41779;52.360;31.026;2023-12-04T06:51:42;15.4;12.2;8
55857;PMS7003;41779;52.360;31.026;2023-12-04T06:56:28;16.2;9.8;7
55857;PMS7003;41779;52.360;31.026;2023-12-04T07:01:52;12.4;9.4;8.2
55857;PMS7003;41779;52.360;31.026;2023-12-04T07:06:50;16.2;11;8.6
55857;PMS7003;41779;52.360;31.026;2023-12-04T07:11:22;12.6;10.2;7.8
55857;PMS7003;41779;52.360;31.026;2023-12-04T07:16:22;19.4;14.6;9.4
55857;PMS7003;41779;52.360;31.026;2023-12-04T07:22:03;18.2;12.6;8.6
55857;PMS7003;41779;52.360;31.026;2023-12-04T07:27:06;16.2;12.6;8.6
55857;PMS7003;41779;52.360;31.026;2023-12-04T07:32:04;15.2;10.6;7.8
55857;PMS7003;41779;52.360;31.026;2023-12-04T07:36:22;17.2;12.6;9.2
55857;PMS7003;41779;52.360;31.026;2023-12-04T07:42:00;13.8;11.6;8.4
55857;PMS7003;41779;52.360;31.026;2023-12-04T07:46:22;17;12.5;9.3
55857;PMS7003;41779;52.360;31.026;2023-12-04T07:51:42;19.4;12.8;9.2
55857;PMS7003;41779;52.360;31.026;2023-12-04T07:56:50;31.4;23.8;16
55857;PMS7003;41779;52.360;31.026;2023-12-04T08:01:30;24;17.2;11.2
55857;PMS7003;41779;52.360;31.026;2023-12-04T08:06:30;19.6;14.8;10.8
55857;PMS7003;41779;52.360;31.026;2023-12-04T08:11:54;20.6;14;11
55857;PMS7003;41779;52.360;31.026;2023-12-04T08:17:02;20.6;11.4;8.4
55857;PMS7003;41779;52.360;31.026;2023-12-04T08:21:58;17.6;12.2;8.8
55857;PMS7003;41779;52.360;31.026;2023-12-04T08:26:56;15.4;12.2;8.8
55857;PMS7003;41779;52.360;31.026;2023-12-04T08:31:24;14.8;11.2;8.8
55857;PMS7003;41779;52.360;31.026;2023-12-04T08:36:24;18.8;11.4;7.8
55857;PMS7003;41779;52.360;31.026;2023-12-04T08:41:22;19;13.2;9
55857;PMS7003;41779;52.360;31.026;2023-12-04T08:46:28;21;13.6;8.8
55857;PMS7003;41779;52.360;31.026;2023-12-04T08:51:26;17.3;11.3;7.8
55857;PMS7003;41779;52.360;31.026;2023-12-04T08:56:24;20;13.6;10.4
55857;PMS7003;41779;52.360;31.026;2023-12-04T09:01:32;20.4;12.2;8.8
55857;PMS7003;41779;52.360;31.026;2023-12-04T09:07:04;20;13.6;10
55857;PMS7003;41779;52.360;31.026;2023-12-04T09:12:02;17.4;13;9
55857;PMS7003;41779;52.360;31.026;2023-12-04T09:16:42;23;13.6;8.8
55857;PMS7003;41779;52.360;31.026;2023-12-04T09:22:00;22.2;15.6;10.2
55857;PMS7003;41779;52.360;31.026;2023-12-04T09:26:26;21.2;14.6;9.4
55857;PMS7003;41779;52.360;31.026;2023-12-04T09:31:26;19.4;15.2;10
55857;PMS7003;41779;52.360;31.026;2023-12-04T09:37:02;23.6;17.2;11
55857;PMS7003;41779;52.360;31.026;2023-12-04T09:41:30;18.4;11.2;8.2
55857;PMS7003;41779;52.360;31.026;2023-12-04T09:47:04;21;14.8;10
55857;PMS7003;41779;52.360;31.026;2023-12-04T09:51:24;19.8;15.8;11.5
55857;PMS7003;41779;52.360;31.026;2023-12-04T09:57:02;21;13.2;9.4
55857;PMS7003;41779;52.360;31.026;2023-12-04T10:02:02;25.8;17;11.6
55857;PMS7003;41779;52.360;31.026;2023-12-04T10:06:58;19.2;13;9
55857;PMS7003;41779;52.360;31.026;2023-12-04T10:11:28;21;15.2;11.4
55857;PMS7003;41779;52.360;31.026;2023-12-04T10:16:37;18.8;13.2;9
55857;PMS7003;41779;52.360;31.026;2023-12-04T10:21:32;19;13.4;8.6
55857;PMS7003;41779;52.360;31.026;2023-12-04T10:26:24;21.8;15.2;11.2
55857;PMS7003;41779;52.360;31.026;2023-12-04T10:31:24;18.2;14;9.6
55857;PMS7003;41779;52.360;31.026;2023-12-04T10:36:42;19.8;12.2;9
55857;PMS7003;41779;52.360;31.026;2023-12-04T10:42:01;19;14.4;10
55857;PMS7003;41779;52.360;31.026;2023-12-04T10:47:04;20;13.4;9.6
55857;PMS7003;41779;52.360;31.026;2023-12-04T10:52:02;15.5;12.5;9.3
55857;PMS7003;41779;52.360;31.026;2023-12-04T10:56:33;18.4;12.8;8.6
55857;PMS7003;41779;52.360;31.026;2023-12-04T11:02:00;18.4;13;9
55857;PMS7003;41779;52.360;31.026;2023-12-04T11:06:35;17.2;12.8;8.6
55857;PMS7003;41779;52.360;31.026;2023-12-04T11:11:35;14.4;11.4;7
55857;PMS7003;41779;52.360;31.026;2023-12-04T11:16:54;16.4;11.8;7.8
55857;PMS7003;41779;52.360;31.026;2023-12-04T11:21:32;14.2;11.4;8.6
55857;PMS7003;41779;52.360;31.026;2023-12-04T11:26:22;13.8;11;7.2
55857;PMS7003;41779;52.360;31.026;2023-12-04T11:31:50;13.2;9.2;6.8
55857;PMS7003;41779;52.360;31.026;2023-12-04T11:37:04;11;7.8;6
55857;PMS7003;41779;52.360;31.026;2023-12-04T11:42:05;14.4;10.2;8
55857;PMS7003;41779;52.360;31.026;2023-12-04T11:46:32;16.8;12.4;8.4
55857;PMS7003;41779;52.360;31.026;2023-12-04T11:51:50;13.5;9.5;7
55857;PMS7003;41779;52.360;31.026;2023-12-04T11:56:26;13.2;9.4;7.6
55857;PMS7003;41779;52.360;31.026;2023-12-04T12:01:24;13.8;9.2;6.8
55857;PMS7003;41779;52.360;31.026;2023-12-04T12:06:27;12;8.6;7.4
55857;PMS7003;41779;52.360;31.026;2023-12-04T12:11:24;12.2;7.6;6.2
55857;PMS7003;41779;52.360;31.026;2023-12-04T12:16:46;13.8;9.5;6.8
55857;PMS7003;41779;52.360;31.026;2023-12-04T12:21:34;9.5;6.8;5
55857;PMS7003;41779;52.360;31.026;2023-12-04T12:26:53;9.8;8.4;6
55857;PMS7003;41779;52.360;31.026;2023-12-04T12:32:05;9;6.4;4.8
55857;PMS7003;41779;52.360;31.026;2023-12-04T12:36:50;11.6;7.2;5.2
55857;PMS7003;41779;52.360;31.026;2023-12-04T12:42:00;9.8;7.2;6.2
55857;PMS7003;41779;52.360;31.026;2023-12-04T12:46:26;10.2;7.8;5.4
55857;PMS7003;41779;52.360;31.026;2023-12-04T12:51:46;9.8;6.8;5.8
55857;PMS7003;41779;52.360;31.026;2023-12-04T12:56:36;10.4;7.6;6.6
55857;PMS7003;41779;52.360;31.026;2023-12-04T13:01:22;9.4;7.2;5
55857;PMS7003;41779;52.360;31.026;2023-12-04T13:07:04;10;5.6;4.8
55857;PMS7003;41779;52.360;31.026;2023-12-04T13:11:34;8;6.2;4.8
55857;PMS7003;41779;52.360;31.026;2023-12-04T13:17:06;11.6;8.2;5.6
55857;PMS7003;41779;52.360;31.026;2023-12-04T13:22:06;10.4;6.6;5.8
55857;PMS7003;41779;52.360;31.026;2023-12-04T13:26:42;8.2;6.2;5
55857;PMS7003;41779;52.360;31.026;2023-12-04T13:31:40;8.6;6.2;4.8
55857;PMS7003;41779;52.360;31.026;2023-12-04T13:37:06;9;6.4;5.4
55857;PMS7003;41779;52.360;31.026;2023-12-04T13:41:36;11.4;8;5.2
55857;PMS7003;41779;52.360;31.026;2023-12-04T13:46:24;10.8;8.2;6
55857;PMS7003;41779;52.360;31.026;2023-12-04T13:51:42;10.3;8.8;6.3
55857;PMS7003;41779;52.360;31.026;2023-12-04T13:56:46;9.4;6.8;5.4
55857;PMS7003;41779;52.360;31.026;2023-12-04T14:01:24;11.4;8;5.8
55857;PMS7003;41779;52.360;31.026;2023-12-04T14:06:54;10.8;7;6.2
55857;PMS7003;41779;52.360;31.026;2023-12-04T14:12:04;13.2;7.4;5.2
55857;PMS7003;41779;52.360;31.026;2023-12-04T14:16:58;11.2;8.6;6.8
55857;PMS7003;41779;52.360;31.026;2023-12-04T14:21:44;11.2;7.2;5.6
55857;PMS7003;41779;52.360;31.026;2023-12-04T14:26:52;12;8.8;6.4
55857;PMS7003;41779;52.360;31.026;2023-12-04T14:31:32;9.8;8.2;5.8
55857;PMS7003;41779;52.360;31.026;2023-12-04T14:36:24;13.2;8;7
55857;PMS7003;41779;52.360;31.026;2023-12-04T14:41:42;13.2;8.4;6.4
55857;PMS7003;41779;52.360;31.026;2023-12-04T14:46:26;14.4;10.4;8.2
55857;PMS7003;41779;52.360;31.026;2023-12-04T14:51:26;12.6;8.4;6.8
55857;PMS7003;41779;52.360;31.026;2023-12-04T14:56:46;11.8;8.8;6.8
55857;PMS7003;41779;52.360;31.026;2023-12-04T15:02:06;10.3;7.8;5
55857;PMS7003;41779;52.360;31.026;2023-12-04T15:17:06;14;10;7.3
55857;PMS7003;41779;52.360;31.026;2023-12-04T15:21:22;12.6;8.6;6.4
55857;PMS7003;41779;52.360;31.026;2023-12-04T15:27:02;12.4;8.6;6.8
55857;PMS7003;41779;52.360;31.026;2023-12-04T15:31:48;11.2;7.4;6.6
55857;PMS7003;41779;52.360;31.026;2023-12-04T15:36:42;10.4;7.6;5.8
55857;PMS7003;41779;52.360;31.026;2023-12-04T15:41:30;14.4;10;7.2
55857;PMS7003;41779;52.360;31.026;2023-12-04T15:46:52;12.8;10;7.6
55857;PMS7003;41779;52.360;31.026;2023-12-04T15:52:06;12.6;10.2;6.6
55857;PMS7003;41779;52.360;31.026;2023-12-04T15:57:04;14.2;10.2;7.6
55857;PMS7003;41779;52.360;31.026;2023-12-04T16:01:26;15;8.5;6.3
55857;PMS7003;41779;52.360;31.026;2023-12-04T16:06:42;14.4;10;7.2
55857;PMS7003;41779;52.360;31.026;2023-12-04T16:11:48;14.8;10.8;7.8
55857;PMS7003;41779;52.360;31.026;2023-12-04T16:16:52;13.6;9.8;7.6
55857;PMS7003;41779;52.360;31.026;2023-12-04T16:21:42;16;11.4;8.4
55857;PMS7003;41779;52.360;31.026;2023-12-04T16:26:44;15.8;11.2;9.4
55857;PMS7003;41779;52.360;31.026;2023-12-04T16:31:52;16.6;10;7.8
55857;PMS7003;41779;52.360;31.026;2023-12-04T16:37:08;14.6;9.8;7.8
55857;PMS7003;41779;52.360;31.026;2023-12-04T16:42:04;15.6;10;8.2
55857;PMS7003;41779;52.360;31.026;2023-12-04T16:46:44;12.8;9.6;7.4
55857;PMS7003;41779;52.360;31.026;2023-12-04T16:52:04;15.6;11.2;8
55857;PMS7003;41779;52.360;31.026;2023-12-04T16:56:42;14.6;10.8;8.2
55857;PMS7003;41779;52.360;31.026;2023-12-04T17:02:00;13.6;10.2;8.2
55857;PMS7003;41779;52.360;31.026;2023-12-04T17:07:04;12.5;9.5;7.3
55857;PMS7003;41779;52.360;31.026;2023-12-04T17:11:24;15;12.4;8.2
55857;PMS7003;41779;52.360;31.026;2023-12-04T17:16:22;17.4;11.6;9.2
55857;PMS7003;41779;52.360;31.026;2023-12-04T17:21:24;14.6;10.4;7.4
55857;PMS7003;41779;52.360;31.026;2023-12-04T17:26:48;12.6;11;8.6
55857;PMS7003;41779;52.360;31.026;2023-12-04T17:31:22;15.8;12;8.6
55857;PMS7003;41779;52.360;31.026;2023-12-04T17:36:22;17.6;12.2;9.2
55857;PMS7003;41779;52.360;31.026;2023-12-04T17:42:08;18.8;15.6;11.6
55857;PMS7003;41779;52.360;31.026;2023-12-04T17:47:04;24.8;16.8;11.8
55857;PMS7003;41779;52.360;31.026;2023-12-04T17:51:22;16.8;12.6;9.2
55857;PMS7003;41779;52.360;31.026;2023-12-04T17:56:50;16.4;10.2;7.4
55857;PMS7003;41779;52.360;31.026;2023-12-04T18:01:22;18.4;12;9
55857;PMS7003;41779;52.360;31.026;2023-12-04T18:06:46;18.5;13.3;9.5
55857;PMS7003;41779;52.360;31.026;2023-12-04T18:11:54;18.6;11.4;8.8
55857;PMS7003;41779;52.360;31.026;2023-12-04T18:17:06;21;15.8;10.4
55857;PMS7003;41779;52.360;31.026;2023-12-04T18:22:02;17.8;11.8;9
55857;PMS7003;41779;52.360;31.026;2023-12-04T18:26:24;18.4;13.4;9.2
55857;PMS7003;41779;52.360;31.026;2023-12-04T18:32:09;15.8;10.8;9
55857;PMS7003;41779;52.360;31.026;2023-12-04T18:37:05;16.6;12.8;8.6
55857;PMS7003;41779;52.360;31.026;2023-12-04T18:42:06;17.8;13.8;9.4
55857;PMS7003;41779;52.360;31.026;2023-12-04T18:46:32;16.2;11;8.4
55857;PMS7003;41779;52.360;31.026;2023-12-04T18:51:24;16.7;11.3;8
55857;PMS7003;41779;52.360;31.026;2023-12-04T18:57:06;16;11.2;8.8
55857;PMS7003;41779;52.360;31.026;2023-12-04T19:01:24;18.2;11.2;6.8
55857;PMS7003;41779;52.360;31.026;2023-12-04T19:06:42;14.8;10.8;8.6
55857;PMS7003;41779;52.360;31.026;2023-12-04T19:11:24;13.8;11;8.4
55857;PMS7003;41779;52.360;31.026;2023-12-04T19:16:24;15.4;11.4;8.4
55857;PMS7003;41779;52.360;31.026;2023-12-04T19:22:06;16.6;11.6;8.8
55857;PMS7003;41779;52.360;31.026;2023-12-04T19:27:04;15.6;11.2;8
55857;PMS7003;41779;52.360;31.026;2023-12-04T19:31:34;17.2;13;9.6
55857;PMS7003;41779;52.360;31.026;2023-12-04T19:37:04;15.8;11;8.8
55857;PMS7003;41779;52.360;31.026;2023-12-04T19:41:31;16;11;8.4
55857;PMS7003;41779;52.360;31.026;2023-12-04T19:46:46;16;11.2;8
55857;PMS7003;41779;52.360;31.026;2023-12-04T19:51:26;14.6;11.6;8
55857;PMS7003;41779;52.360;31.026;2023-12-04T19:57:04;15.6;11.8;9.2
55857;PMS7003;41779;52.360;31.026;2023-12-04T20:02:00;13.8;10.6;8
55857;PMS7003;41779;52.360;31.026;2023-12-04T20:06:34;14.2;10.6;8
55857;PMS7003;41779;52.360;31.026;2023-12-04T20:12:06;14;11;8.2
55857;PMS7003;41779;52.360;31.026;2023-12-04T20:16:46;16.8;11;8.8
55857;PMS7003;41779;52.360;31.026;2023-12-04T20:22:02;15.6;10.6;7.4
55857;PMS7003;41779;52.360;31.026;2023-12-04T20:26:36;14.4;9.4;7.6
55857;PMS7003;41779;52.360;31.026;2023-12-04T20:31:22;15;11;7.2
55857;PMS7003;41779;52.360;31.026;2023-12-04T20:37:06;13.8;11.5;8.3
55857;PMS7003;41779;52.360;31.026;2023-12-04T20:41:32;18;10.4;9
55857;PMS7003;41779;52.360;31.026;2023-12-04T20:46:24;14.6;10.2;8
55857;PMS7003;41779;52.360;31.026;2023-12-04T20:51:28;15.6;11.8;8
55857;PMS7003;41779;52.360;31.026;2023-12-04T20:57:00;15.6;11.8;8
55857;PMS7003;41779;52.360;31.026;2023-12-04T21:02:06;16;11.6;8.8
55857;PMS7003;41779;52.360;31.026;2023-12-04T21:07:06;18;13.4;9.4
55857;PMS7003;41779;52.360;31.026;2023-12-04T21:11:50;15;10.8;7.8
55857;PMS7003;41779;52.360;31.026;2023-12-04T21:17:02;16;12.4;9
55857;PMS7003;41779;52.360;31.026;2023-12-04T21:21:34;16.2;10.2;7
55857;PMS7003;41779;52.360;31.026;2023-12-04T21:26:42;18.2;10.8;8.4
55857;PMS7003;41779;52.360;31.026;2023-12-04T21:31:34;15.4;11.6;8.4
55857;PMS7003;41779;52.360;31.026;2023-12-04T21:36:36;12.5;8.5;6.3
55857;PMS7003;41779;52.360;31.026;2023-12-04T21:41:24;17.6;14.4;8
55857;PMS7003;41779;52.360;31.026;2023-12-04T21:46:34;15.6;12.2;8
55857;PMS7003;41779;52.360;31.026;2023-12-04T21:52:06;17.2;11;7.8
55857;PMS7003;41779;52.360;31.026;2023-12-04T21:57:06;15.2;11.2;8
55857;PMS7003;41779;52.360;31.026;2023-12-04T22:02:00;17.6;12;9.4
55857;PMS7003;41779;52.360;31.026;2023-12-04T22:06:24;16.8;13.2;9.6
55857;PMS7003;41779;52.360;31.026;2023-12-04T22:11:28;18;11.8;7.8
55857;PMS7003;41779;52.360;31.026;2023-12-04T22:16:26;16;13.2;9
55857;PMS7003;41779;52.360;31.026;2023-12-04T22:22:06;15.2;10.6;7.8
55857;PMS7003;41779;52.360;31.026;2023-12-04T22:26:54;19.4;12.8;9.4
55857;PMS7003;41779;52.360;31.026;2023-12-04T22:32:06;17.2;13.4;9.6
55857;PMS7003;41779;52.360;31.026;2023-12-04T22:37:00;18.2;14.2;9.8
55857;PMS7003;41779;52.360;31.026;2023-12-04T22:42:06;22.3;14.5;11.3
55857;PMS7003;41779;52.360;31.026;2023-12-04T22:47:06;20.4;12.8;10.2
55857;PMS7003;41779;52.360;31.026;2023-12-04T22:51:34;18.2;14.6;11.4
55857;PMS7003;41779;52.360;31.026;2023-12-04T22:57:02;16.2;13.8;10.8
55857;PMS7003;41779;52.360;31.026;2023-12-04T23:01:26;19;16.2;10.6
55857;PMS7003;41779;52.360;31.026;2023-12-04T23:07:06;17.2;13.6;9.2
55857;PMS7003;41779;52.360;31.026;2023-12-04T23:11:54;17.2;13.2;9
55857;PMS7003;41779;52.360;31.026;2023-12-04T23:16:52;19.6;14.6;10.4
55857;PMS7003;41779;52.360;31.026;2023-12-04T23:21:52;17.6;12.6;8.8
55857;PMS7003;41779;52.360;31.026;2023-12-04T23:26:34;19;15.2;9.6
55857;PMS7003;41779;52.360;31.026;2023-12-04T23:32:07;20.2;13.2;8.6
55857;PMS7003;41779;52.360;31.026;2023-12-04T23:37:06;18.4;13;9.4
55857;PMS7003;41779;52.360;31.026;2023-12-04T23:41:24;17.5;13.5;10.5
55857;PMS7003;41779;52.360;31.026;2023-12-04T23:46:24;17.4;12.6;9.2
55857;PMS7003;41779;52.360;31.026;2023-12-04T23:51:32;21.2;12.2;9.4
55857;PMS7003;41779;52.360;31.026;2023-12-04T23:56:30;17.4;14.2;11
